Time;durP1;ratioP1;P1;durP2;ratioP2;P2;SDS_P1;SDS_P2;PMS_P1;PMS_P2;Temp;Humidity;BMP_temperature;BMP_pressure;BME280_temperature;BME280_humidity;BME280_pressure;Samples;Min_cycle;Max_cycle;Signal;HPM_P1;HPM_P2
2022/09/23 00:01:48;;;;;;;7.63;7.03;;;8.40;99.90;;;;;;5080435;22;20201;-85
2022/09/23 00:04:14;;;;;;;6.90;6.30;;;8.40;99.90;;;;;;5055376;28;20602;-85
2022/09/23 00:06:42;;;;;;;6.43;6.00;;;8.40;99.90;;;;;;5054735;28;20207;-84
2022/09/23 00:09:09;;;;;;;7.00;6.40;;;8.30;99.90;;;;;;5054886;28;20211;-85
2022/09/23 00:11:36;;;;;;;9.80;6.63;;;8.30;99.90;;;;;;5054690;28;20827;-86
2022/09/23 00:14:03;;;;;;;7.00;6.30;;;8.30;99.90;;;;;;5055150;28;20238;-85
2022/09/23 00:16:32;;;;;;;6.13;5.63;;;8.30;99.90;;;;;;5055206;28;20206;-84
2022/09/23 00:19:01;;;;;;;6.78;6.28;;;8.30;99.90;;;;;;5054015;28;20210;-84
2022/09/23 00:21:28;;;;;;;7.22;6.55;;;8.30;99.90;;;;;;5054360;28;20199;-84
2022/09/23 00:23:55;;;;;;;7.15;6.55;;;8.20;99.90;;;;;;5055608;28;20225;-84
2022/09/23 00:26:22;;;;;;;5.22;4.82;;;8.20;99.90;;;;;;5055444;28;20581;-85
2022/09/23 00:28:50;;;;;;;7.53;6.82;;;8.20;99.90;;;;;;5055106;28;20211;-85
2022/09/23 00:31:19;;;;;;;6.10;5.60;;;8.20;99.90;;;;;;5054683;28;20200;-86
2022/09/23 00:33:45;;;;;;;6.60;6.20;;;8.20;99.90;;;;;;5054119;28;20221;-84
2022/09/23 00:36:15;;;;;;;6.03;5.38;;;8.20;99.90;;;;;;5053775;28;20203;-83
2022/09/23 00:38:42;;;;;;;5.85;5.38;;;8.20;99.90;;;;;;5053722;28;20218;-84
2022/09/23 00:41:09;;;;;;;6.15;5.63;;;8.10;99.90;;;;;;5053721;28;20203;-85
2022/09/23 00:43:41;;;;;;;6.88;6.28;;;8.10;99.90;;;;;;5053572;28;20577;-85
2022/09/23 00:46:09;;;;;;;6.03;5.50;;;8.10;99.90;;;;;;5053512;28;20209;-84
2022/09/23 00:48:38;;;;;;;6.95;6.20;;;8.10;99.90;;;;;;5053365;28;20215;-84
2022/09/23 00:51:07;;;;;;;6.22;5.70;;;8.10;99.90;;;;;;5053497;28;20215;-84
2022/09/23 00:53:36;;;;;;;6.45;5.75;;;8.10;99.90;;;;;;5053672;28;20230;-84
2022/09/23 00:56:06;;;;;;;6.55;5.50;;;8.00;99.90;;;;;;5053211;28;20206;-84
2022/09/23 00:58:36;;;;;;;5.53;5.10;;;8.00;99.90;;;;;;5053439;28;20234;-84
2022/09/23 01:01:03;;;;;;;7.05;6.20;;;8.00;99.90;;;;;;5053089;28;20558;-84
2022/09/23 01:03:31;;;;;;;5.93;5.43;;;8.00;99.90;;;;;;5053336;28;20234;-84
2022/09/23 01:05:58;;;;;;;7.07;6.25;;;8.00;99.90;;;;;;5052962;28;20222;-84
2022/09/23 01:08:26;;;;;;;5.63;5.15;;;8.00;99.90;;;;;;5052881;28;20664;-84
2022/09/23 01:11:04;;;;;;;6.30;5.70;;;8.00;99.90;;;;;;5053085;28;20207;-84
2022/09/23 01:13:41;;;;;;;6.50;5.90;;;7.90;99.90;;;;;;5053183;28;20280;-83
2022/09/23 01:16:15;;;;;;;6.05;5.55;;;7.90;99.90;;;;;;5052972;28;20659;-84
2022/09/23 01:18:48;;;;;;;7.20;6.60;;;7.90;99.90;;;;;;5032842;28;20210;-84
2022/09/23 01:21:25;;;;;;;7.55;6.85;;;7.90;99.90;;;;;;5038382;28;20200;-84
2022/09/23 01:24:32;;;;;;;7.20;6.50;;;7.90;99.90;;;;;;5052751;28;20209;-83
2022/09/23 01:27:48;;;;;;;11.35;7.65;;;7.90;99.90;;;;;;5032983;28;20213;-84
2022/09/23 01:30:36;;;;;;;6.95;6.30;;;7.90;99.90;;;;;;5038751;28;20208;-84
2022/09/23 01:33:09;;;;;;;7.63;6.13;;;7.90;99.90;;;;;;5052648;28;20231;-83
2022/09/23 01:35:50;;;;;;;6.95;6.25;;;7.90;99.90;;;;;;5051985;28;20199;-84
2022/09/23 01:38:26;;;;;;;7.20;6.60;;;7.80;99.90;;;;;;5052374;28;20197;-84
2022/09/23 01:41:02;;;;;;;7.57;6.88;;;7.80;99.90;;;;;;5053104;28;20203;-84
2022/09/23 01:43:37;;;;;;;7.40;6.80;;;7.80;99.90;;;;;;5052554;28;20595;-84
2022/09/23 01:46:09;;;;;;;6.72;6.18;;;7.80;99.90;;;;;;5052785;28;20222;-85
2022/09/23 01:48:39;;;;;;;8.25;7.45;;;7.80;99.90;;;;;;5052229;28;20424;-84
2022/09/23 01:51:11;;;;;;;8.20;7.40;;;7.80;99.90;;;;;;5052334;28;20583;-84
2022/09/23 01:53:43;;;;;;;8.45;7.72;;;7.80;99.90;;;;;;5052041;28;20475;-83
2022/09/23 01:56:14;;;;;;;8.35;7.65;;;7.80;99.90;;;;;;5052438;28;20203;-84
2022/09/23 01:58:45;;;;;;;8.52;7.80;;;7.80;99.90;;;;;;5052389;28;20205;-84
2022/09/23 02:01:19;;;;;;;8.10;7.45;;;7.80;99.90;;;;;;5052408;28;20202;-84
2022/09/23 02:03:51;;;;;;;8.73;7.95;;;7.80;99.90;;;;;;5052282;28;20226;-84
2022/09/23 02:06:23;;;;;;;8.25;7.68;;;7.80;99.90;;;;;;5052286;28;20233;-84
2022/09/23 02:08:56;;;;;;;9.00;8.15;;;7.80;99.90;;;;;;5051921;28;20205;-84
2022/09/23 02:11:23;;;;;;;8.35;7.65;;;7.70;99.90;;;;;;5051961;28;20686;-83
2022/09/23 02:13:53;;;;;;;9.65;8.95;;;7.70;99.90;;;;;;5051746;28;20248;-84
2022/09/23 02:16:26;;;;;;;9.60;8.88;;;7.70;99.90;;;;;;5052115;28;20260;-84
2022/09/23 02:18:57;;;;;;;14.32;13.05;;;7.70;99.90;;;;;;5051774;28;20209;-83
2022/09/23 02:21:29;;;;;;;14.32;13.20;;;7.70;99.90;;;;;;5052179;28;20220;-84
2022/09/23 02:24:03;;;;;;;13.57;12.57;;;7.70;99.90;;;;;;5052039;28;20200;-84
2022/09/23 02:26:34;;;;;;;12.52;11.52;;;7.70;99.90;;;;;;5052310;28;20216;-83
2022/09/23 02:29:09;;;;;;;11.95;10.88;;;7.70;99.90;;;;;;5052238;28;20198;-83
2022/09/23 02:31:42;;;;;;;12.13;11.07;;;7.70;99.90;;;;;;5052477;28;20201;-84
2022/09/23 02:34:24;;;;;;;11.52;10.52;;;7.60;99.90;;;;;;5052543;28;20209;-83
2022/09/23 02:37:05;;;;;;;11.18;10.18;;;7.60;99.90;;;;;;5052516;28;20210;-83
2022/09/23 02:39:38;;;;;;;10.25;9.30;;;7.60;99.90;;;;;;5052495;28;20254;-84
2022/09/23 02:42:10;;;;;;;11.15;10.13;;;7.60;99.90;;;;;;5052779;28;20230;-84
2022/09/23 02:44:37;;;;;;;10.30;9.50;;;7.60;99.90;;;;;;5057137;28;20217;-84
2022/09/23 02:47:05;;;;;;;9.98;9.00;;;7.60;99.90;;;;;;5056846;28;20206;-84
2022/09/23 02:49:34;;;;;;;8.20;7.50;;;7.60;99.90;;;;;;5056329;28;20214;-83
2022/09/23 02:52:03;;;;;;;9.52;8.70;;;7.50;99.90;;;;;;5056330;28;20291;-85
2022/09/23 02:54:32;;;;;;;8.93;8.05;;;7.50;99.90;;;;;;5056473;28;20255;-84
2022/09/23 02:57:01;;;;;;;8.80;8.10;;;7.50;99.90;;;;;;5056554;28;20556;-84
2022/09/23 02:59:28;;;;;;;8.43;7.72;;;7.50;99.90;;;;;;5056471;28;20758;-84
2022/09/23 03:02:13;;;;;;;8.95;8.27;;;7.50;99.90;;;;;;5056248;28;20233;-84
2022/09/23 03:04:47;;;;;;;11.10;10.10;;;7.50;99.90;;;;;;5056230;28;20222;-84
2022/09/23 03:07:17;;;;;;;11.35;10.25;;;7.50;99.90;;;;;;5056422;28;20234;-85
2022/09/23 03:09:54;;;;;;;10.38;9.52;;;7.50;99.90;;;;;;5056256;28;20267;-83
2022/09/23 03:12:33;;;;;;;10.15;9.25;;;7.50;99.90;;;;;;5055865;28;20222;-84
2022/09/23 03:15:08;;;;;;;10.52;9.63;;;7.50;99.90;;;;;;5056374;28;20238;-84
2022/09/23 03:17:42;;;;;;;9.77;8.98;;;7.50;99.90;;;;;;5055890;28;20217;-84
2022/09/23 03:20:15;;;;;;;8.75;7.93;;;7.50;99.90;;;;;;5056492;28;20209;-84
2022/09/23 03:22:48;;;;;;;8.90;8.20;;;7.50;99.90;;;;;;5055861;28;20227;-84
2022/09/23 03:25:17;;;;;;;7.97;7.38;;;7.50;99.90;;;;;;5055326;28;20696;-84
2022/09/23 03:27:45;;;;;;;8.90;8.10;;;7.50;99.90;;;;;;5055701;28;20209;-84
2022/09/23 03:30:13;;;;;;;6.97;6.45;;;7.40;99.90;;;;;;5055965;28;20218;-84
2022/09/23 03:32:45;;;;;;;8.30;7.63;;;7.40;99.90;;;;;;5055420;28;20697;-83
2022/09/23 03:35:14;;;;;;;9.65;8.65;;;7.40;99.90;;;;;;5055580;28;20202;-84
2022/09/23 03:37:48;;;;;;;10.23;9.23;;;7.40;99.90;;;;;;5055362;28;20206;-84
2022/09/23 03:40:18;;;;;;;9.80;8.90;;;7.40;99.90;;;;;;5055725;28;20598;-84
2022/09/23 03:42:47;;;;;;;9.88;9.07;;;7.40;99.90;;;;;;5055222;28;20222;-84
2022/09/23 03:45:19;;;;;;;9.45;8.55;;;7.40;99.90;;;;;;5055225;28;20218;-84
2022/09/23 03:47:47;;;;;;;9.00;8.20;;;7.40;99.90;;;;;;5055180;28;20579;-84
2022/09/23 03:50:16;;;;;;;10.07;8.20;;;7.40;99.90;;;;;;5056112;28;20564;-84
2022/09/23 03:52:43;;;;;;;7.95;7.35;;;7.40;99.90;;;;;;5055184;28;20231;-84
2022/09/23 03:55:11;;;;;;;10.40;9.35;;;7.40;99.90;;;;;;5054895;28;20575;-83
2022/09/23 03:57:38;;;;;;;13.73;11.68;;;7.40;99.90;;;;;;5054990;28;20213;-84
2022/09/23 04:00:06;;;;;;;21.23;19.40;;;7.40;99.90;;;;;;5055470;28;20667;-85
2022/09/23 04:02:33;;;;;;;26.30;23.80;;;7.40;99.90;;;;;;5054741;28;20599;-84
2022/09/23 04:05:01;;;;;;;21.00;19.20;;;7.40;99.90;;;;;;5054876;28;20227;-83
2022/09/23 04:07:28;;;;;;;20.05;18.10;;;7.40;99.90;;;;;;5054663;28;20217;-84
2022/09/23 04:09:55;;;;;;;18.27;16.77;;;7.40;99.90;;;;;;5055060;28;20211;-85
2022/09/23 04:12:22;;;;;;;15.20;13.75;;;7.40;99.90;;;;;;5054611;28;20227;-84
2022/09/23 04:14:48;;;;;;;16.17;14.50;;;7.40;99.90;;;;;;5054792;28;20214;-84
2022/09/23 04:17:15;;;;;;;14.30;13.10;;;7.40;99.90;;;;;;5055052;28;20580;-84
2022/09/23 04:19:43;;;;;;;15.05;13.65;;;7.40;99.90;;;;;;5054542;28;20710;-84
2022/09/23 04:22:11;;;;;;;14.00;12.80;;;7.40;99.90;;;;;;5054216;28;20242;-83
2022/09/23 04:24:38;;;;;;;14.98;13.63;;;7.40;99.90;;;;;;5054110;28;20213;-83
2022/09/23 04:27:05;;;;;;;14.40;13.02;;;7.40;99.90;;;;;;5054248;28;20597;-84
2022/09/23 04:29:32;;;;;;;12.98;11.80;;;7.40;99.90;;;;;;5054636;28;20213;-84
2022/09/23 04:31:58;;;;;;;15.20;12.07;;;7.40;99.90;;;;;;5054472;28;20219;-83
2022/09/23 04:34:25;;;;;;;15.02;13.05;;;7.40;99.90;;;;;;5054342;28;20274;-84
2022/09/23 04:36:52;;;;;;;15.82;14.25;;;7.40;99.90;;;;;;5054147;28;20203;-84
2022/09/23 04:39:20;;;;;;;15.95;12.75;;;7.40;99.90;;;;;;5054116;28;20236;-83
2022/09/23 04:41:47;;;;;;;14.10;12.80;;;7.40;99.90;;;;;;5054289;28;20207;-83
2022/09/23 04:44:15;;;;;;;15.55;14.00;;;7.40;99.90;;;;;;5054163;28;20205;-85
2022/09/23 04:46:46;;;;;;;13.77;12.48;;;7.40;99.90;;;;;;5054048;28;20725;-84
2022/09/23 04:49:13;;;;;;;15.32;13.93;;;7.40;99.90;;;;;;5053915;28;20216;-84
2022/09/23 04:51:42;;;;;;;12.35;11.05;;;7.40;99.90;;;;;;5053699;28;20199;-84
2022/09/23 04:54:09;;;;;;;13.40;12.10;;;7.40;99.90;;;;;;5053743;28;20198;-84
2022/09/23 04:56:38;;;;;;;13.20;11.88;;;7.40;99.90;;;;;;5054147;28;20198;-84
2022/09/23 04:59:05;;;;;;;12.25;11.13;;;7.30;99.90;;;;;;5054021;28;20206;-84
2022/09/23 05:01:34;;;;;;;12.18;10.60;;;7.30;99.90;;;;;;5053760;28;20217;-84
2022/09/23 05:04:04;;;;;;;11.68;9.98;;;7.30;99.90;;;;;;5053886;28;20201;-83
2022/09/23 05:06:31;;;;;;;13.88;12.63;;;7.30;99.90;;;;;;5052879;28;20268;-84
2022/09/23 05:08:59;;;;;;;14.88;12.50;;;7.20;99.90;;;;;;5053736;28;20636;-84
2022/09/23 05:11:27;;;;;;;16.95;15.38;;;7.20;99.90;;;;;;5053975;28;20257;-83
2022/09/23 05:13:55;;;;;;;14.52;13.23;;;7.20;99.90;;;;;;5054210;28;20213;-84
2022/09/23 05:16:23;;;;;;;14.48;11.93;;;7.20;99.90;;;;;;5053547;28;20225;-83
2022/09/23 05:18:51;;;;;;;11.32;10.27;;;7.20;99.90;;;;;;5053577;28;20544;-84
2022/09/23 05:21:20;;;;;;;11.40;10.40;;;7.20;99.90;;;;;;5053468;28;20206;-81
2022/09/23 05:23:48;;;;;;;10.75;9.65;;;7.20;99.90;;;;;;5033873;28;20228;-84
2022/09/23 05:26:16;;;;;;;11.20;10.05;;;7.20;99.90;;;;;;5033563;28;20277;-84
2022/09/23 05:28:42;;;;;;;9.30;8.50;;;7.20;99.90;;;;;;5052461;28;20256;-84
2022/09/23 05:31:13;;;;;;;10.05;9.27;;;7.20;99.90;;;;;;5054521;28;20279;-84
2022/09/23 05:33:41;;;;;;;9.68;8.88;;;7.30;99.90;;;;;;5052805;28;20226;-85
2022/09/23 05:36:08;;;;;;;9.63;8.80;;;7.30;99.90;;;;;;5052476;28;20194;-84
2022/09/23 05:38:35;;;;;;;9.50;8.48;;;7.30;99.90;;;;;;5052977;28;20217;-85
2022/09/23 05:41:04;;;;;;;10.85;9.23;;;7.30;99.90;;;;;;5052840;28;20214;-84
2022/09/23 05:43:31;;;;;;;10.60;9.60;;;7.30;99.90;;;;;;5046316;28;20230;-85
2022/09/23 05:46:02;;;;;;;10.15;9.25;;;7.30;99.90;;;;;;5043911;28;20218;-84
2022/09/23 05:48:31;;;;;;;11.20;10.10;;;7.40;99.90;;;;;;5044860;28;20257;-84
2022/09/23 05:50:58;;;;;;;10.18;9.23;;;7.40;99.90;;;;;;5043526;28;20198;-83
2022/09/23 05:53:25;;;;;;;11.13;10.13;;;7.40;99.90;;;;;;5041580;28;20222;-83
2022/09/23 05:55:53;;;;;;;12.80;11.50;;;7.50;99.90;;;;;;5044069;28;20206;-84
2022/09/23 05:58:20;;;;;;;11.90;10.93;;;7.50;99.90;;;;;;5040783;28;20233;-84
2022/09/23 06:00:48;;;;;;;12.95;11.63;;;7.60;99.90;;;;;;5042908;28;20240;-85
2022/09/23 06:03:17;;;;;;;13.32;12.02;;;7.70;99.90;;;;;;5055654;22;20609;-80
2022/09/23 06:05:46;;;;;;;14.02;11.43;;;7.80;99.90;;;;;;5041073;28;20258;-79
2022/09/23 06:08:13;;;;;;;13.38;11.10;;;7.90;99.90;;;;;;5033168;28;20557;-79
2022/09/23 06:10:41;;;;;;;11.38;10.32;;;8.00;99.90;;;;;;5033563;28;20212;-79
2022/09/23 06:13:09;;;;;;;11.35;9.23;;;8.10;99.90;;;;;;5032899;28;20259;-79
2022/09/23 06:15:36;;;;;;;10.45;9.45;;;8.10;99.90;;;;;;5033475;28;20195;-79
2022/09/23 06:18:03;;;;;;;9.30;8.50;;;8.30;99.90;;;;;;5037869;28;20191;-81
2022/09/23 06:20:29;;;;;;;8.37;7.60;;;8.30;99.90;;;;;;5041958;28;20648;-79
2022/09/23 06:23:02;;;;;;;11.32;8.90;;;8.50;99.90;;;;;;5034406;28;20479;-80
2022/09/23 06:25:29;;;;;;;9.60;8.85;;;8.60;99.90;;;;;;5035368;28;20582;-81
2022/09/23 06:27:58;;;;;;;11.23;9.23;;;8.60;99.90;;;;;;5033750;28;20214;-80
2022/09/23 06:30:26;;;;;;;10.85;10.05;;;8.70;99.90;;;;;;5034168;28;20688;-81
2022/09/23 06:32:54;;;;;;;9.17;8.37;;;8.80;99.90;;;;;;5033888;28;20251;-81
2022/09/23 06:35:22;;;;;;;8.53;7.73;;;8.90;99.90;;;;;;5035459;28;20951;-81
2022/09/23 06:37:49;;;;;;;9.35;8.48;;;9.10;99.90;;;;;;5035496;28;20456;-81
2022/09/23 06:40:17;;;;;;;9.97;9.17;;;9.20;99.90;;;;;;5035750;28;20208;-81
2022/09/23 06:42:44;;;;;;;12.30;9.17;;;9.30;99.90;;;;;;5035904;28;20513;-81
2022/09/23 06:45:13;;;;;;;9.13;8.33;;;9.40;99.90;;;;;;5036354;28;20455;-81
2022/09/23 06:47:40;;;;;;;7.80;7.20;;;9.50;99.90;;;;;;5035920;28;21039;-81
2022/09/23 06:50:08;;;;;;;7.97;7.27;;;9.50;99.90;;;;;;5036182;28;20463;-81
2022/09/23 06:52:35;;;;;;;8.90;7.80;;;9.70;99.90;;;;;;5035815;28;20468;-81
2022/09/23 06:55:01;;;;;;;8.97;8.20;;;9.80;99.90;;;;;;5035946;28;20447;-81
2022/09/23 06:57:30;;;;;;;8.50;7.70;;;9.90;99.90;;;;;;5035662;28;20452;-80
2022/09/23 06:59:58;;;;;;;12.33;8.50;;;10.00;99.90;;;;;;5035581;28;20448;-81
2022/09/23 07:02:24;;;;;;;8.10;7.30;;;10.10;99.90;;;;;;5035956;28;20487;-81
2022/09/23 07:04:51;;;;;;;9.10;7.40;;;10.20;99.90;;;;;;5036086;28;20450;-81
2022/09/23 07:07:18;;;;;;;8.83;7.37;;;10.30;99.90;;;;;;5035642;28;20863;-81
2022/09/23 07:09:45;;;;;;;9.33;8.50;;;10.40;99.90;;;;;;5035557;28;20452;-81
2022/09/23 07:12:12;;;;;;;10.50;7.70;;;10.50;99.90;;;;;;5049452;28;20452;-81
2022/09/23 07:14:40;;;;;;;8.27;7.57;;;10.60;99.90;;;;;;5035675;28;20460;-81
2022/09/23 07:17:07;;;;;;;8.73;7.30;;;10.70;99.90;;;;;;5035937;28;20444;-81
2022/09/23 07:19:35;;;;;;;8.93;7.07;;;10.80;99.90;;;;;;5035579;28;20458;-81
2022/09/23 07:22:01;;;;;;;8.30;7.50;;;10.90;99.90;;;;;;5035028;28;20468;-81
2022/09/23 07:24:28;;;;;;;8.40;6.80;;;11.10;99.90;;;;;;5035261;28;20463;-81
2022/09/23 07:26:55;;;;;;;10.00;9.00;;;11.20;99.90;;;;;;5035075;28;20491;-81
2022/09/23 07:29:22;;;;;;;9.13;8.33;;;11.40;99.90;;;;;;5036946;28;20507;-81
2022/09/23 07:31:50;;;;;;;8.03;7.23;;;11.60;99.90;;;;;;5038653;28;20456;-81
2022/09/23 07:34:17;;;;;;;9.27;8.57;;;11.70;99.90;;;;;;5038483;28;20458;-81
2022/09/23 07:36:44;;;;;;;9.40;7.53;;;11.90;99.90;;;;;;5038877;28;20850;-81
2022/09/23 07:39:12;;;;;;;6.97;6.23;;;12.10;99.90;;;;;;5039090;28;20453;-81
2022/09/23 07:41:40;;;;;;;7.90;6.80;;;12.30;99.90;;;;;;5038699;28;20465;-81
2022/09/23 07:44:07;;;;;;;7.20;6.60;;;12.50;99.90;;;;;;5039338;28;20473;-81
2022/09/23 07:46:35;;;;;;;6.97;6.37;;;12.70;99.90;;;;;;5040599;28;20576;-81
2022/09/23 07:49:04;;;;;;;7.17;5.33;;;12.80;99.90;;;;;;5038677;28;20453;-81
2022/09/23 07:51:33;;;;;;;5.63;5.13;;;12.90;99.90;;;;;;5039561;28;20949;-81
2022/09/23 07:54:00;;;;;;;6.20;4.63;;;13.00;99.90;;;;;;5039609;28;20472;-81
2022/09/23 07:56:29;;;;;;;4.60;4.20;;;13.10;99.90;;;;;;5039731;28;20448;-81
2022/09/23 07:58:59;;;;;;;5.90;4.80;;;13.20;99.90;;;;;;5041181;28;20457;-80
2022/09/23 08:01:27;;;;;;;4.23;3.93;;;13.30;99.90;;;;;;5040337;28;20437;-81
2022/09/23 08:03:54;;;;;;;4.07;3.77;;;13.40;99.90;;;;;;5039307;28;20530;-81
2022/09/23 08:06:23;;;;;;;5.20;4.70;;;13.40;99.90;;;;;;5052615;28;20499;-81
2022/09/23 08:08:50;;;;;;;5.90;4.07;;;13.50;99.90;;;;;;5038791;28;20469;-81
2022/09/23 08:11:17;;;;;;;4.50;4.20;;;13.60;99.90;;;;;;5039100;28;20877;-81
2022/09/23 08:13:44;;;;;;;3.97;3.73;;;13.70;99.90;;;;;;5039197;28;20478;-81
2022/09/23 08:16:11;;;;;;;4.07;3.63;;;13.90;99.90;;;;;;5039171;28;20476;-81
2022/09/23 08:18:37;;;;;;;4.80;4.37;;;14.00;99.90;;;;;;5038471;28;20445;-81
2022/09/23 08:21:04;;;;;;;3.60;3.33;;;14.10;99.90;;;;;;5039202;28;20458;-81
2022/09/23 08:23:33;;;;;;;4.30;4.00;;;14.20;99.80;;;;;;5038895;28;20475;-81
2022/09/23 08:26:01;;;;;;;4.00;3.50;;;14.20;99.30;;;;;;5039151;28;20504;-81
2022/09/23 08:28:28;;;;;;;3.27;3.07;;;14.20;98.90;;;;;;5038973;28;20457;-81
2022/09/23 08:30:55;;;;;;;4.10;3.70;;;14.20;99.10;;;;;;5038641;28;20829;-81
2022/09/23 08:33:23;;;;;;;3.70;3.50;;;14.40;98.80;;;;;;5039088;28;20474;-81
2022/09/23 08:35:50;;;;;;;3.57;3.37;;;14.50;98.80;;;;;;5038396;28;20487;-81
2022/09/23 08:38:17;;;;;;;4.13;3.73;;;14.50;98.80;;;;;;5038599;28;20967;-81
2022/09/23 08:40:49;;;;;;;5.23;4.27;;;14.60;98.90;;;;;;5037530;28;20454;-81
2022/09/23 08:43:25;;;;;;;3.13;2.93;;;14.70;98.80;;;;;;5038820;28;20533;-81
2022/09/23 08:45:52;;;;;;;3.40;3.20;;;14.80;98.70;;;;;;5038994;28;20458;-81
2022/09/23 08:48:27;;;;;;;3.37;3.17;;;14.90;98.40;;;;;;5038188;28;20493;-81
2022/09/23 08:50:58;;;;;;;4.63;3.23;;;15.00;98.50;;;;;;5039404;28;20470;-81
2022/09/23 08:53:28;;;;;;;4.00;3.70;;;15.10;98.20;;;;;;5038824;28;20486;-81
2022/09/23 08:55:59;;;;;;;3.73;3.43;;;15.10;98.40;;;;;;5038342;28;20971;-81
2022/09/23 08:58:42;;;;;;;3.17;2.97;;;15.20;98.20;;;;;;5038544;28;20444;-81
2022/09/23 09:01:16;;;;;;;4.93;3.93;;;15.30;98.00;;;;;;5051454;28;20498;-81
2022/09/23 09:03:47;;;;;;;4.60;3.23;;;15.40;98.00;;;;;;5037661;28;20478;-80
2022/09/23 09:06:18;;;;;;;3.37;3.23;;;15.40;97.60;;;;;;5037772;28;20982;-81
2022/09/23 09:08:51;;;;;;;4.80;2.80;;;15.50;97.90;;;;;;5036884;28;20453;-81
2022/09/23 09:11:22;;;;;;;4.40;4.10;;;15.70;97.50;;;;;;5037124;28;20467;-80
2022/09/23 09:13:55;;;;;;;2.77;2.60;;;15.80;96.70;;;;;;5037236;28;20479;-81
2022/09/23 09:16:38;;;;;;;7.53;3.60;;;15.90;96.30;;;;;;5036943;28;20456;-81
2022/09/23 09:19:08;;;;;;;6.70;3.30;;;16.00;95.50;;;;;;5036584;28;20450;-80
2022/09/23 09:21:41;;;;;;;5.07;3.33;;;16.10;95.50;;;;;;5036748;28;20914;-80
2022/09/23 09:24:17;;;;;;;3.40;3.10;;;16.20;95.30;;;;;;5039614;28;20479;-81
2022/09/23 09:26:45;;;;;;;3.80;3.50;;;16.40;95.50;;;;;;5040247;28;20479;-81
2022/09/23 09:29:16;;;;;;;5.20;3.47;;;16.50;95.00;;;;;;5039765;28;20831;-81
2022/09/23 09:31:44;;;;;;;3.90;3.50;;;16.60;95.30;;;;;;5040287;28;20434;-81
2022/09/23 09:34:22;;;;;;;4.23;3.87;;;16.70;95.00;;;;;;5040052;28;20472;-81
2022/09/23 09:36:57;;;;;;;4.17;3.77;;;16.70;93.90;;;;;;5039514;28;20531;-81
2022/09/23 09:39:24;;;;;;;4.00;3.80;;;16.90;94.80;;;;;;5039068;28;20463;-81
2022/09/23 09:41:58;;;;;;;3.33;3.10;;;17.00;95.00;;;;;;5039157;28;20457;-81
2022/09/23 09:44:30;;;;;;;3.37;3.17;;;17.10;94.50;;;;;;5039147;28;20449;-81
2022/09/23 09:47:10;;;;;;;3.50;3.30;;;17.20;93.50;;;;;;5037578;28;20475;-81
2022/09/23 09:49:45;;;;;;;5.20;3.80;;;17.20;92.90;;;;;;5038832;28;21016;-81
2022/09/23 09:52:22;;;;;;;3.90;3.70;;;17.20;92.90;;;;;;5038355;28;20480;-81
2022/09/23 09:54:49;;;;;;;4.07;3.87;;;17.30;92.50;;;;;;5044698;28;20412;-81
2022/09/23 09:57:30;;;;;;;4.20;3.90;;;17.20;92.60;;;;;;5045768;28;20545;-81
2022/09/23 09:59:57;;;;;;;4.47;4.10;;;17.20;93.10;;;;;;5038647;28;20453;-81
2022/09/23 10:02:28;;;;;;;4.07;3.83;;;17.40;92.70;;;;;;5037770;28;20488;-81
2022/09/23 10:05:00;;;;;;;4.63;4.10;;;17.50;93.10;;;;;;5034684;28;20452;-84
2022/09/23 10:07:29;;;;;;;4.80;4.50;;;17.60;93.00;;;;;;5044324;28;20484;-84
2022/09/23 10:10:18;;;;;;;4.63;4.27;;;17.80;93.00;;;;;;5020828;28;20447;-81
2022/09/23 10:12:47;;;;;;;4.23;3.93;;;17.90;93.30;;;;;;5044538;28;20484;-85
2022/09/23 10:15:30;;;;;;;3.80;3.57;;;18.10;93.20;;;;;;5037673;28;20471;-86
2022/09/23 10:18:00;;;;;;;3.60;3.30;;;18.20;92.70;;;;;;5042505;28;20956;-85
2022/09/23 10:20:31;;;;;;;4.17;3.83;;;18.40;91.80;;;;;;5055103;28;20452;-87
2022/09/23 10:23:05;;;;;;;4.50;4.10;;;18.50;91.90;;;;;;5042245;28;20987;-86
2022/09/23 10:25:35;;;;;;;4.97;4.67;;;18.70;92.50;;;;;;5042063;28;20447;-86
2022/09/23 10:28:45;;;;;;;3.30;3.10;;;18.80;92.50;;;;;;5050732;28;20484;-87
2022/09/23 10:31:14;;;;;;;5.20;4.70;;;19.10;92.90;;;;;;5050864;28;20459;-85
2022/09/23 10:33:46;;;;;;;3.90;3.60;;;19.30;91.30;;;;;;5039277;28;20470;-83
2022/09/23 10:36:15;;;;;;;4.97;4.57;;;19.50;91.20;;;;;;5038038;28;20460;-85
2022/09/23 10:38:41;;;;;;;3.80;3.60;;;19.70;89.60;;;;;;5038929;28;20449;-83
2022/09/23 10:47:14;;;;;;;3.03;2.83;;;20.20;87.80;;;;;;5053057;28;21072;-83
2022/09/23 10:49:57;;;;;;;3.33;3.13;;;20.40;90.10;;;;;;5046443;28;20513;-83
2022/09/23 10:52:38;;;;;;;3.83;3.63;;;20.80;88.50;;;;;;5062004;28;20471;-84
2022/09/23 10:55:16;;;;;;;3.50;3.20;;;21.40;89.00;;;;;;5041981;28;21007;-85
2022/09/23 10:58:01;;;;;;;3.00;2.80;;;22.20;87.10;;;;;;5040307;28;20449;-85
2022/09/23 11:00:39;;;;;;;3.50;3.20;;;23.10;85.00;;;;;;5040470;28;20538;-82
2022/09/23 11:03:40;;;;;;;3.60;3.33;;;24.10;81.00;;;;;;5040073;28;20525;-84
2022/09/23 11:06:18;;;;;;;3.17;2.87;;;25.00;76.70;;;;;;5039545;28;20937;-84
2022/09/23 11:08:57;;;;;;;3.00;2.90;;;25.80;73.90;;;;;;5037275;28;20499;-85
2022/09/23 11:11:40;;;;;;;4.10;3.70;;;26.10;69.20;;;;;;5037012;28;20873;-85
2022/09/23 11:14:26;;;;;;;4.27;3.87;;;26.40;64.90;;;;;;5037900;28;20478;-85
2022/09/23 11:17:13;;;;;;;4.57;3.33;;;26.90;62.90;;;;;;5037523;28;20458;-84
2022/09/23 11:20:20;;;;;;;4.37;4.10;;;27.50;61.10;;;;;;5038072;28;20559;-84
2022/09/23 11:23:19;;;;;;;3.60;3.30;;;28.30;58.60;;;;;;5037883;28;20496;-84
2022/09/23 11:58:17;;;;;;;3.97;3.53;;;30.10;51.20;;;;;;5020100;28;20490;-82
2022/09/23 12:00:51;;;;;;;4.30;3.57;;;31.10;48.20;;;;;;5024119;28;20462;-82
2022/09/23 12:03:24;;;;;;;3.07;2.87;;;31.70;46.20;;;;;;5029144;28;20506;-83
2022/09/23 12:05:58;;;;;;;3.40;3.20;;;32.20;45.00;;;;;;5036559;28;20454;-83
2022/09/23 12:08:27;;;;;;;3.20;2.43;;;32.60;45.90;;;;;;5052880;28;20479;-83
2022/09/23 12:28:20;;;;;;;4.40;4.10;;;31.80;40.60;;;;;;4888792;29;20460;-87
2022/09/23 12:30:49;;;;;;;3.93;3.60;;;30.80;42.50;;;;;;4976591;28;20464;-84
2022/09/23 12:33:23;;;;;;;4.87;3.50;;;30.20;44.10;;;;;;4993910;28;21024;-84
2022/09/23 12:35:52;;;;;;;4.80;4.50;;;29.30;45.10;;;;;;5013817;28;20491;-83
2022/09/23 12:38:23;;;;;;;4.57;4.20;;;28.30;45.50;;;;;;5035562;28;21001;-84
2022/09/23 12:41:23;;;;;;;5.20;4.80;;;27.60;46.60;;;;;;5059300;28;20451;-88
2022/09/23 12:51:15;;;;;;;4.17;3.73;;;27.20;51.30;;;;;;5056712;28;20442;-88
2022/09/23 12:54:15;;;;;;;3.80;3.50;;;28.20;49.90;;;;;;5050012;28;20480;-85
2022/09/23 12:57:00;;;;;;;3.97;3.77;;;29.00;49.10;;;;;;5043918;28;20457;-83
2022/09/23 12:59:29;;;;;;;5.60;3.37;;;29.80;47.50;;;;;;5038265;28;20487;-83
2022/09/23 13:02:02;;;;;;;4.27;3.97;;;30.60;46.50;;;;;;5036247;28;20454;-85
2022/09/23 13:07:32;;;;;;;4.17;3.87;;;31.30;44.90;;;;;;5045766;28;20449;-82
2022/09/23 13:10:08;;;;;;;4.43;4.03;;;31.80;44.90;;;;;;5021780;28;20479;-83
2022/09/23 13:12:38;;;;;;;4.57;3.50;;;32.00;43.70;;;;;;5033854;28;20488;-83
2022/09/23 13:15:16;;;;;;;3.87;3.30;;;32.20;43.20;;;;;;5035702;28;20471;-84
2022/09/23 13:17:43;;;;;;;4.00;3.67;;;32.20;42.80;;;;;;5034413;28;20582;-83
2022/09/23 13:20:37;;;;;;;4.53;3.33;;;32.10;42.90;;;;;;5034339;28;20945;-83
2022/09/23 13:23:19;;;;;;;3.77;3.47;;;32.00;42.80;;;;;;5034485;28;20464;-83
2022/09/23 13:25:45;;;;;;;3.47;3.27;;;31.80;42.70;;;;;;5036382;28;20460;-83
2022/09/23 13:28:26;;;;;;;3.90;3.57;;;31.80;42.50;;;;;;5055069;28;20458;-83
2022/09/23 13:30:53;;;;;;;3.90;3.63;;;31.60;42.70;;;;;;5048677;28;20464;-82
2022/09/23 13:33:29;;;;;;;4.57;4.27;;;31.30;43.60;;;;;;5034013;28;20469;-85
2022/09/23 13:36:01;;;;;;;3.47;3.17;;;30.80;43.40;;;;;;5031407;28;20451;-87
2022/09/23 13:38:31;;;;;;;4.20;3.80;;;30.30;43.90;;;;;;5014583;28;20480;-86
2022/09/23 13:41:01;;;;;;;4.97;4.57;;;29.80;44.40;;;;;;5014041;28;20458;-86
2022/09/23 13:43:31;;;;;;;4.83;4.37;;;29.30;45.30;;;;;;5052916;28;20473;-86
2022/09/23 13:46:00;;;;;;;4.13;3.80;;;28.70;45.40;;;;;;5034054;28;20452;-84
2022/09/23 13:48:28;;;;;;;3.47;3.27;;;28.30;46.50;;;;;;5034633;28;20783;-85
2022/09/23 13:50:55;;;;;;;3.93;3.63;;;27.90;47.00;;;;;;5036495;28;20829;-85
2022/09/23 13:53:26;;;;;;;4.60;3.40;;;27.60;47.70;;;;;;5034840;28;20479;-85
2022/09/23 13:56:06;;;;;;;4.43;3.13;;;27.50;49.20;;;;;;5035370;28;20441;-87
2022/09/23 13:58:35;;;;;;;4.10;3.80;;;27.60;48.90;;;;;;5033293;28;20586;-86
2022/09/23 14:01:02;;;;;;;4.20;3.90;;;27.70;48.30;;;;;;5033220;28;20506;-86
2022/09/23 14:03:31;;;;;;;6.10;5.70;;;27.90;47.70;;;;;;5036677;28;20479;-82
2022/09/23 14:05:59;;;;;;;5.03;4.53;;;27.90;46.70;;;;;;5039479;28;20459;-82
2022/09/23 14:08:28;;;;;;;5.77;5.17;;;27.80;47.10;;;;;;5039822;28;20535;-80
2022/09/23 14:10:55;;;;;;;5.83;5.23;;;27.50;47.40;;;;;;5038529;28;20456;-84
2022/09/23 14:13:26;;;;;;;5.50;5.00;;;27.10;47.60;;;;;;5035132;28;20498;-83
2022/09/23 14:15:56;;;;;;;7.23;6.23;;;27.00;48.20;;;;;;5046854;28;20736;-83